createdAt,value
2022-11-07T00:01:24.628Z,96880.59
2022-11-07T00:06:16.364Z,96882.59
2022-11-07T00:11:08.190Z,96887.44
2022-11-07T00:16:02.030Z,96873.59
2022-11-07T00:20:53.973Z,96887.03
2022-11-07T00:25:45.674Z,96885.63
2022-11-07T00:30:37.411Z,96887.66
2022-11-07T00:35:29.190Z,96900.31
2022-11-07T00:40:21.061Z,96887.25
2022-11-07T00:45:13.299Z,96891.88
2022-11-07T00:50:06.395Z,96893.69
2022-11-07T00:54:58.114Z,96899.50
2022-11-07T00:59:49.771Z,96903.09
2022-11-07T01:05:00.050Z,96898.66
2022-11-07T01:09:51.707Z,96901.50
2022-11-07T01:14:43.377Z,96912.34
2022-11-07T01:19:35.102Z,96898.69
2022-11-07T01:24:26.834Z,96910.91
2022-11-07T01:29:19.676Z,96907.66
2022-11-07T01:34:11.379Z,96911.06
2022-11-07T01:39:04.693Z,96917.50
2022-11-07T01:44:08.454Z,96919.06
2022-11-07T01:49:22.901Z,96907.78
2022-11-07T01:54:19.007Z,96904.16
2022-11-07T01:59:18.274Z,96908.56
2022-11-07T02:04:12.098Z,96901.38
2022-11-07T02:09:04.538Z,96893.53
2022-11-07T02:13:56.195Z,96889.31
2022-11-07T02:18:48.137Z,96881.25
2022-11-07T02:24:00.599Z,96869.59
2022-11-07T02:28:55.184Z,96864.75
2022-11-07T02:33:46.862Z,96879.88
2022-11-07T02:38:38.647Z,96884.75
2022-11-07T02:43:32.499Z,96869.91
2022-11-07T02:48:39.405Z,96870.31
2022-11-07T02:53:31.081Z,96869.31
2022-11-07T02:58:22.746Z,96877.34
2022-11-07T03:03:15.115Z,96876.31
2022-11-07T03:08:07.051Z,96873.53
2022-11-07T03:12:58.699Z,96880.59
2022-11-07T03:17:50.360Z,96881.41
2022-11-07T03:22:42.041Z,96887.66
2022-11-07T03:27:33.901Z,96895.47
2022-11-07T03:32:25.586Z,96905.13
2022-11-07T03:37:17.593Z,96905.31
2022-11-07T03:42:09.263Z,96912.94
2022-11-07T03:47:00.927Z,96916.13
2022-11-07T03:51:52.582Z,96921.53
2022-11-07T03:56:44.275Z,96934.53
2022-11-07T04:01:36.036Z,96929.91
2022-11-07T04:06:27.779Z,96932.69
2022-11-07T04:11:37.846Z,96926.22
2022-11-07T04:16:48.242Z,96933.84
2022-11-07T04:21:39.891Z,96936.81
2022-11-07T04:26:50.002Z,96932.22
2022-11-07T04:31:41.665Z,96945.41
2022-11-07T04:36:33.448Z,96932.22
2022-11-07T04:41:25.197Z,96940.03
2022-11-07T04:46:17.145Z,96937.00
2022-11-07T04:51:20.240Z,96929.75
2022-11-07T04:56:11.928Z,96940.97
2022-11-07T08:18:17.636Z,97050.31
